createdAt,value
2023-02-14T21:19:20.884Z,101780.13
2023-02-14T21:21:49.183Z,101781.38
2023-02-14T21:24:20.567Z,101780.97
2023-02-14T21:26:48.695Z,101769.19
2023-02-14T21:29:17.395Z,101760.34
2023-02-14T21:31:45.865Z,101764.75
2023-02-14T21:34:16.879Z,101758.44
2023-02-14T21:37:00.771Z,101745.06
2023-02-14T21:39:31.752Z,101731.69
2023-02-14T21:42:01.801Z,101734.25
2023-02-14T21:44:48.256Z,101732.44
2023-02-14T21:47:16.524Z,101725.38
2023-02-14T21:50:06.388Z,101710.38
2023-02-14T21:52:38.245Z,101712.16
2023-02-14T21:55:09.733Z,101713.13
2023-02-14T21:57:38.065Z,101706.91
2023-02-14T22:00:07.069Z,101706.91
2023-02-14T22:02:35.395Z,101700.81
2023-02-14T22:05:03.704Z,101693.03
2023-02-14T22:07:31.994Z,101692.22
2023-02-14T22:10:00.265Z,101677.22
2023-02-14T22:12:30.254Z,101673.50
2023-02-14T22:15:01.127Z,101678.06
2023-02-14T22:17:29.743Z,101664.94
2023-02-14T22:19:58.021Z,101661.38
2023-02-14T22:22:26.619Z,101657.88
2023-02-14T22:24:54.862Z,101650.41
2023-02-14T22:27:23.205Z,101653.75
2023-02-14T22:29:51.594Z,101654.53
2023-02-14T22:32:19.958Z,101649.97
2023-02-14T22:34:48.246Z,101656.94
2023-02-14T22:37:16.627Z,101656.94
2023-02-14T22:39:44.836Z,101644.19
2023-02-14T22:42:13.178Z,101638.50
2023-02-14T22:44:41.488Z,101636.63
2023-02-14T22:47:09.718Z,101639.94
2023-02-14T22:49:37.990Z,101628.25
2023-02-14T22:52:06.489Z,101614.00
2023-02-14T22:54:34.733Z,101617.59
2023-02-14T22:57:03.049Z,101610.53
2023-02-14T22:59:32.996Z,101615.03
2023-02-14T23:02:02.476Z,101618.53
2023-02-14T23:04:30.886Z,101624.94
2023-02-14T23:06:59.400Z,101616.25
2023-02-14T23:09:29.039Z,101619.84
2023-02-14T23:11:57.370Z,101630.88
2023-02-14T23:14:43.846Z,101631.22
2023-02-14T23:17:19.566Z,101633.97
2023-02-14T23:20:09.878Z,101634.16
2023-02-14T23:22:40.594Z,101634.44
2023-02-14T23:25:11.724Z,101635.56
2023-02-14T23:27:45.974Z,101621.72
2023-02-14T23:30:17.347Z,101637.41
2023-02-14T23:32:45.472Z,101627.72
2023-02-14T23:35:14.364Z,101621.69
2023-02-14T23:37:42.842Z,101628.81
2023-02-14T23:40:23.615Z,101622.56
